sensor_id;sensor_type;location;lat;lon;timestamp;temperature;humidity
44487;DHT22;30191;50.908;6.962;2022-09-03T00:01:14;21.00;85.60
44487;DHT22;30191;50.908;6.962;2022-09-03T00:03:48;21.00;85.80
44487;DHT22;30191;50.908;6.962;2022-09-03T00:06:29;20.90;86.30
44487;DHT22;30191;50.908;6.962;2022-09-03T00:14:11;20.90;86.00
44487;DHT22;30191;50.908;6.962;2022-09-03T00:17:04;20.80;86.30
44487;DHT22;30191;50.908;6.962;2022-09-03T00:19:44;20.80;86.20
44487;DHT22;30191;50.908;6.962;2022-09-03T00:22:16;20.80;86.40
44487;DHT22;30191;50.908;6.962;2022-09-03T00:24:44;20.80;86.60
44487;DHT22;30191;50.908;6.962;2022-09-03T00:27:32;20.70;86.70
44487;DHT22;30191;50.908;6.962;2022-09-03T00:30:14;20.70;87.00
44487;DHT22;30191;50.908;6.962;2022-09-03T00:32:51;20.70;87.20
44487;DHT22;30191;50.908;6.962;2022-09-03T00:35:31;20.70;87.40
44487;DHT22;30191;50.908;6.962;2022-09-03T00:37:59;20.60;87.70
44487;DHT22;30191;50.908;6.962;2022-09-03T00:40:32;20.50;88.00
44487;DHT22;30191;50.908;6.962;2022-09-03T00:45:56;20.40;88.80
44487;DHT22;30191;50.908;6.962;2022-09-03T00:48:46;20.40;89.10
44487;DHT22;30191;50.908;6.962;2022-09-03T00:54:25;20.40;89.80
44487;DHT22;30191;50.908;6.962;2022-09-03T00:59:34;20.30;90.10
44487;DHT22;30191;50.908;6.962;2022-09-03T01:05:25;20.20;90.20
44487;DHT22;30191;50.908;6.962;2022-09-03T01:25:13;19.90;91.20
44487;DHT22;30191;50.908;6.962;2022-09-03T01:30:27;20.00;91.40
44487;DHT22;30191;50.908;6.962;2022-09-03T01:33:17;19.90;91.60
44487;DHT22;30191;50.908;6.962;2022-09-03T01:48:28;19.80;91.90
44487;DHT22;30191;50.908;6.962;2022-09-03T01:50:32;19.70;91.90
44487;DHT22;30191;50.908;6.962;2022-09-03T01:59:10;19.60;92.30
44487;DHT22;30191;50.908;6.962;2022-09-03T02:05:08;19.70;92.40
44487;DHT22;30191;50.908;6.962;2022-09-03T02:10:17;19.50;92.50
44487;DHT22;30191;50.908;6.962;2022-09-03T02:12:50;19.60;92.40
44487;DHT22;30191;50.908;6.962;2022-09-03T02:15:19;19.50;92.50
44487;DHT22;30191;50.908;6.962;2022-09-03T02:17:47;19.50;92.50
44487;DHT22;30191;50.908;6.962;2022-09-03T02:20:19;19.50;92.60
44487;DHT22;30191;50.908;6.962;2022-09-03T02:22:47;19.50;92.70
44487;DHT22;30191;50.908;6.962;2022-09-03T02:25:15;19.50;92.80
44487;DHT22;30191;50.908;6.962;2022-09-03T02:27:41;19.40;93.10
44487;DHT22;30191;50.908;6.962;2022-09-03T02:30:07;19.40;93.20
44487;DHT22;30191;50.908;6.962;2022-09-03T02:32:34;19.40;93.40
44487;DHT22;30191;50.908;6.962;2022-09-03T02:35:00;19.30;93.70
44487;DHT22;30191;50.908;6.962;2022-09-03T02:37:25;19.40;93.70
44487;DHT22;30191;50.908;6.962;2022-09-03T02:39:51;19.30;94.00
44487;DHT22;30191;50.908;6.962;2022-09-03T02:42:17;19.30;94.10
44487;DHT22;30191;50.908;6.962;2022-09-03T02:45:12;19.30;94.20
44487;DHT22;30191;50.908;6.962;2022-09-03T02:47:43;19.20;94.40
44487;DHT22;30191;50.908;6.962;2022-09-03T02:50:10;19.20;94.70
44487;DHT22;30191;50.908;6.962;2022-09-03T02:52:36;19.10;94.90
44487;DHT22;30191;50.908;6.962;2022-09-03T02:55:01;19.20;95.10
44487;DHT22;30191;50.908;6.962;2022-09-03T02:57:27;19.20;95.10
44487;DHT22;30191;50.908;6.962;2022-09-03T02:59:53;19.20;95.10
44487;DHT22;30191;50.908;6.962;2022-09-03T03:02:19;19.20;95.10
44487;DHT22;30191;50.908;6.962;2022-09-03T03:04:44;19.20;95.00
44487;DHT22;30191;50.908;6.962;2022-09-03T03:07:10;19.30;95.00
44487;DHT22;30191;50.908;6.962;2022-09-03T03:09:36;19.30;94.90
44487;DHT22;30191;50.908;6.962;2022-09-03T03:12:02;19.30;94.80
44487;DHT22;30191;50.908;6.962;2022-09-03T03:14:27;19.40;94.70
44487;DHT22;30191;50.908;6.962;2022-09-03T03:16:53;19.40;94.50
44487;DHT22;30191;50.908;6.962;2022-09-03T03:19:19;19.40;94.40
44487;DHT22;30191;50.908;6.962;2022-09-03T03:21:44;19.40;94.50
44487;DHT22;30191;50.908;6.962;2022-09-03T03:24:10;19.40;94.40
44487;DHT22;30191;50.908;6.962;2022-09-03T03:26:36;19.50;94.50
44487;DHT22;30191;50.908;6.962;2022-09-03T03:29:02;19.50;94.40
44487;DHT22;30191;50.908;6.962;2022-09-03T03:31:32;19.40;94.30
44487;DHT22;30191;50.908;6.962;2022-09-03T03:34:00;19.50;94.40
44487;DHT22;30191;50.908;6.962;2022-09-03T03:36:29;19.50;94.50
44487;DHT22;30191;50.908;6.962;2022-09-03T03:38:56;19.50;94.40
44487;DHT22;30191;50.908;6.962;2022-09-03T03:41:28;19.40;94.40
44487;DHT22;30191;50.908;6.962;2022-09-03T03:43:57;19.40;94.60
44487;DHT22;30191;50.908;6.962;2022-09-03T03:46:24;19.40;94.60
44487;DHT22;30191;50.908;6.962;2022-09-03T03:48:51;19.40;94.70
44487;DHT22;30191;50.908;6.962;2022-09-03T03:51:17;19.40;94.60
44487;DHT22;30191;50.908;6.962;2022-09-03T03:53:43;19.40;94.60
44487;DHT22;30191;50.908;6.962;2022-09-03T03:56:11;19.40;94.40
44487;DHT22;30191;50.908;6.962;2022-09-03T03:58:39;19.40;94.20
44487;DHT22;30191;50.908;6.962;2022-09-03T04:03:37;19.40;94.30
44487;DHT22;30191;50.908;6.962;2022-09-03T04:06:03;19.40;94.20
44487;DHT22;30191;50.908;6.962;2022-09-03T04:08:33;19.40;94.20
44487;DHT22;30191;50.908;6.962;2022-09-03T04:11:01;19.40;94.20
44487;DHT22;30191;50.908;6.962;2022-09-03T04:13:31;19.30;94.20
44487;DHT22;30191;50.908;6.962;2022-09-03T04:16:05;19.40;94.30
44487;DHT22;30191;50.908;6.962;2022-09-03T04:18:32;19.40;94.40
44487;DHT22;30191;50.908;6.962;2022-09-03T04:21:07;19.40;94.50
44487;DHT22;30191;50.908;6.962;2022-09-03T04:23:35;19.40;94.50
44487;DHT22;30191;50.908;6.962;2022-09-03T04:26:02;19.50;94.50
44487;DHT22;30191;50.908;6.962;2022-09-03T04:28:28;19.50;94.50
44487;DHT22;30191;50.908;6.962;2022-09-03T04:30:54;19.50;94.60
44487;DHT22;30191;50.908;6.962;2022-09-03T04:33:20;19.50;94.60
44487;DHT22;30191;50.908;6.962;2022-09-03T04:35:45;19.50;94.80
44487;DHT22;30191;50.908;6.962;2022-09-03T04:38:11;19.40;94.70
44487;DHT22;30191;50.908;6.962;2022-09-03T04:40:37;19.50;95.10
44487;DHT22;30191;50.908;6.962;2022-09-03T04:43:03;19.40;94.90
44487;DHT22;30191;50.908;6.962;2022-09-03T04:45:29;19.50;94.80
44487;DHT22;30191;50.908;6.962;2022-09-03T04:48:02;19.50;94.90
44487;DHT22;30191;50.908;6.962;2022-09-03T04:50:29;19.40;94.80
44487;DHT22;30191;50.908;6.962;2022-09-03T04:53:00;19.50;94.80
44487;DHT22;30191;50.908;6.962;2022-09-03T04:55:27;19.40;94.90
44487;DHT22;30191;50.908;6.962;2022-09-03T04:57:52;19.40;94.90
44487;DHT22;30191;50.908;6.962;2022-09-03T05:00:18;19.50;95.20
44487;DHT22;30191;50.908;6.962;2022-09-03T05:02:45;19.40;95.00
44487;DHT22;30191;50.908;6.962;2022-09-03T05:05:16;19.50;94.90
44487;DHT22;30191;50.908;6.962;2022-09-03T05:07:42;19.50;95.00
44487;DHT22;30191;50.908;6.962;2022-09-03T05:10:10;19.50;95.00
44487;DHT22;30191;50.908;6.962;2022-09-03T05:12:56;19.40;95.00
44487;DHT22;30191;50.908;6.962;2022-09-03T05:15:21;19.50;95.20
44487;DHT22;30191;50.908;6.962;2022-09-03T05:17:47;19.40;95.30
44487;DHT22;30191;50.908;6.962;2022-09-03T05:20:13;19.40;95.40
44487;DHT22;30191;50.908;6.962;2022-09-03T05:22:39;19.40;95.40
44487;DHT22;30191;50.908;6.962;2022-09-03T05:25:05;19.40;95.50
44487;DHT22;30191;50.908;6.962;2022-09-03T05:27:31;19.40;95.50
44487;DHT22;30191;50.908;6.962;2022-09-03T05:29:57;19.50;95.50
44487;DHT22;30191;50.908;6.962;2022-09-03T05:32:22;19.40;95.50
44487;DHT22;30191;50.908;6.962;2022-09-03T05:34:49;19.40;95.50
44487;DHT22;30191;50.908;6.962;2022-09-03T05:37:15;19.50;95.50
44487;DHT22;30191;50.908;6.962;2022-09-03T05:39:41;19.50;95.60
44487;DHT22;30191;50.908;6.962;2022-09-03T05:42:06;19.50;95.60
44487;DHT22;30191;50.908;6.962;2022-09-03T05:44:32;19.50;95.60
44487;DHT22;30191;50.908;6.962;2022-09-03T05:46:57;19.50;95.50
44487;DHT22;30191;50.908;6.962;2022-09-03T05:49:24;19.50;95.60
44487;DHT22;30191;50.908;6.962;2022-09-03T05:51:50;19.60;95.50
44487;DHT22;30191;50.908;6.962;2022-09-03T05:54:15;19.70;95.40
44487;DHT22;30191;50.908;6.962;2022-09-03T05:56:41;19.70;95.30
44487;DHT22;30191;50.908;6.962;2022-09-03T05:59:08;19.70;95.20
44487;DHT22;30191;50.908;6.962;2022-09-03T06:01:39;19.70;95.20
44487;DHT22;30191;50.908;6.962;2022-09-03T06:04:12;19.70;95.20
44487;DHT22;30191;50.908;6.962;2022-09-03T06:06:40;19.80;95.40
44487;DHT22;30191;50.908;6.962;2022-09-03T06:09:11;19.80;95.20
44487;DHT22;30191;50.908;6.962;2022-09-03T06:11:38;19.80;95.10
44487;DHT22;30191;50.908;6.962;2022-09-03T06:14:06;19.90;95.20
44487;DHT22;30191;50.908;6.962;2022-09-03T06:16:35;19.90;95.20
44487;DHT22;30191;50.908;6.962;2022-09-03T06:19:02;19.90;95.30
44487;DHT22;30191;50.908;6.962;2022-09-03T06:21:28;19.90;95.20
44487;DHT22;30191;50.908;6.962;2022-09-03T06:23:55;19.90;95.30
44487;DHT22;30191;50.908;6.962;2022-09-03T06:26:22;19.90;95.20
44487;DHT22;30191;50.908;6.962;2022-09-03T06:28:48;20.00;95.10
44487;DHT22;30191;50.908;6.962;2022-09-03T06:31:16;20.10;95.10
44487;DHT22;30191;50.908;6.962;2022-09-03T06:33:42;20.10;95.10
44487;DHT22;30191;50.908;6.962;2022-09-03T06:36:13;20.20;95.00
44487;DHT22;30191;50.908;6.962;2022-09-03T06:38:39;20.20;94.70
44487;DHT22;30191;50.908;6.962;2022-09-03T06:41:11;20.20;94.70
44487;DHT22;30191;50.908;6.962;2022-09-03T06:43:38;20.30;94.70
44487;DHT22;30191;50.908;6.962;2022-09-03T06:46:10;20.30;94.80
44487;DHT22;30191;50.908;6.962;2022-09-03T06:48:37;20.40;94.60
44487;DHT22;30191;50.908;6.962;2022-09-03T06:51:05;20.50;94.80
44487;DHT22;30191;50.908;6.962;2022-09-03T06:53:34;20.50;94.70
44487;DHT22;30191;50.908;6.962;2022-09-03T06:56:02;20.50;94.80
44487;DHT22;30191;50.908;6.962;2022-09-03T06:58:34;20.50;94.70
44487;DHT22;30191;50.908;6.962;2022-09-03T07:01:22;20.60;94.70
44487;DHT22;30191;50.908;6.962;2022-09-03T07:03:55;20.60;94.40
44487;DHT22;30191;50.908;6.962;2022-09-03T07:06:21;20.60;94.40
44487;DHT22;30191;50.908;6.962;2022-09-03T07:08:47;20.60;94.60
44487;DHT22;30191;50.908;6.962;2022-09-03T07:11:15;20.70;94.60
44487;DHT22;30191;50.908;6.962;2022-09-03T07:13:44;20.70;94.70
44487;DHT22;30191;50.908;6.962;2022-09-03T07:16:16;20.70;94.70
44487;DHT22;30191;50.908;6.962;2022-09-03T07:18:43;20.80;94.50
44487;DHT22;30191;50.908;6.962;2022-09-03T07:21:12;20.90;94.30
44487;DHT22;30191;50.908;6.962;2022-09-03T07:23:38;20.90;94.50
44487;DHT22;30191;50.908;6.962;2022-09-03T07:26:06;21.00;94.50
44487;DHT22;30191;50.908;6.962;2022-09-03T07:28:34;21.00;94.40
44487;DHT22;30191;50.908;6.962;2022-09-03T07:31:04;21.00;94.20
44487;DHT22;30191;50.908;6.962;2022-09-03T07:33:30;21.10;94.20
44487;DHT22;30191;50.908;6.962;2022-09-03T07:36:05;21.10;94.20
44487;DHT22;30191;50.908;6.962;2022-09-03T07:38:33;21.10;94.20
44487;DHT22;30191;50.908;6.962;2022-09-03T07:41:00;21.20;94.10
44487;DHT22;30191;50.908;6.962;2022-09-03T07:43:27;21.20;94.20
44487;DHT22;30191;50.908;6.962;2022-09-03T07:45:54;21.30;94.20
44487;DHT22;30191;50.908;6.962;2022-09-03T07:48:21;21.30;94.20
44487;DHT22;30191;50.908;6.962;2022-09-03T07:50:47;21.30;94.10
44487;DHT22;30191;50.908;6.962;2022-09-03T07:53:15;21.40;94.00
44487;DHT22;30191;50.908;6.962;2022-09-03T07:55:41;21.40;94.30
44487;DHT22;30191;50.908;6.962;2022-09-03T07:58:08;21.40;94.00
44487;DHT22;30191;50.908;6.962;2022-09-03T08:00:36;21.50;93.90
44487;DHT22;30191;50.908;6.962;2022-09-03T08:03:01;21.50;93.80
44487;DHT22;30191;50.908;6.962;2022-09-03T08:05:32;21.50;94.00
44487;DHT22;30191;50.908;6.962;2022-09-03T08:08:05;21.60;94.10
44487;DHT22;30191;50.908;6.962;2022-09-03T08:10:35;21.60;93.90
44487;DHT22;30191;50.908;6.962;2022-09-03T08:13:02;21.70;93.80
44487;DHT22;30191;50.908;6.962;2022-09-03T08:15:30;21.70;94.00
44487;DHT22;30191;50.908;6.962;2022-09-03T08:17:56;21.70;94.00
44487;DHT22;30191;50.908;6.962;2022-09-03T08:20:22;21.70;94.00
44487;DHT22;30191;50.908;6.962;2022-09-03T08:22:47;21.70;94.20
44487;DHT22;30191;50.908;6.962;2022-09-03T08:25:13;21.60;94.60
44487;DHT22;30191;50.908;6.962;2022-09-03T08:27:39;21.50;95.00
44487;DHT22;30191;50.908;6.962;2022-09-03T08:30:05;21.50;95.20
44487;DHT22;30191;50.908;6.962;2022-09-03T08:32:37;21.50;95.70
44487;DHT22;30191;50.908;6.962;2022-09-03T08:35:05;21.50;96.00
44487;DHT22;30191;50.908;6.962;2022-09-03T08:37:31;21.50;96.00
44487;DHT22;30191;50.908;6.962;2022-09-03T08:39:57;21.50;96.30
44487;DHT22;30191;50.908;6.962;2022-09-03T08:45:05;21.50;96.70
44487;DHT22;30191;50.908;6.962;2022-09-03T08:47:49;21.50;96.60
44487;DHT22;30191;50.908;6.962;2022-09-03T08:50:28;21.50;96.60
44487;DHT22;30191;50.908;6.962;2022-09-03T08:55:51;21.60;96.80
44487;DHT22;30191;50.908;6.962;2022-09-03T08:58:25;21.70;97.50
44487;DHT22;30191;50.908;6.962;2022-09-03T09:09:14;22.40;97.00
44487;DHT22;30191;50.908;6.962;2022-09-03T09:15:05;22.50;97.70
44487;DHT22;30191;50.908;6.962;2022-09-03T09:20:14;22.50;99.50
44487;DHT22;30191;50.908;6.962;2022-09-03T09:22:42;22.50;99.50
44487;DHT22;30191;50.908;6.962;2022-09-03T09:25:21;22.50;99.90
44487;DHT22;30191;50.908;6.962;2022-09-03T09:27:53;22.10;99.90
44487;DHT22;30191;50.908;6.962;2022-09-03T09:30:20;21.60;99.90
44487;DHT22;30191;50.908;6.962;2022-09-03T09:32:46;21.50;99.90
44487;DHT22;30191;50.908;6.962;2022-09-03T09:35:12;21.30;99.90
44487;DHT22;30191;50.908;6.962;2022-09-03T09:37:54;21.10;99.90
44487;DHT22;30191;50.908;6.962;2022-09-03T09:40:24;21.10;99.90
44487;DHT22;30191;50.908;6.962;2022-09-03T09:42:50;21.00;99.90
44487;DHT22;30191;50.908;6.962;2022-09-03T09:45:23;20.80;99.90
44487;DHT22;30191;50.908;6.962;2022-09-03T09:47:54;20.80;99.90
44487;DHT22;30191;50.908;6.962;2022-09-03T09:50:21;20.70;99.90
44487;DHT22;30191;50.908;6.962;2022-09-03T09:52:47;20.70;99.90
44487;DHT22;30191;50.908;6.962;2022-09-03T09:55:18;20.70;99.90
44487;DHT22;30191;50.908;6.962;2022-09-03T09:57:44;20.70;99.90
44487;DHT22;30191;50.908;6.962;2022-09-03T10:00:13;20.70;99.90
44487;DHT22;30191;50.908;6.962;2022-09-03T10:02:49;20.70;99.90
44487;DHT22;30191;50.908;6.962;2022-09-03T10:05:20;20.80;99.90
44487;DHT22;30191;50.908;6.962;2022-09-03T10:08:01;20.80;99.90
44487;DHT22;30191;50.908;6.962;2022-09-03T10:10:29;20.90;99.90
44487;DHT22;30191;50.908;6.962;2022-09-03T10:16:26;21.00;99.90
44487;DHT22;30191;50.908;6.962;2022-09-03T10:24:33;21.10;99.90
44487;DHT22;30191;50.908;6.962;2022-09-03T10:27:06;21.20;99.90
44487;DHT22;30191;50.908;6.962;2022-09-03T10:29:34;21.30;99.90
44487;DHT22;30191;50.908;6.962;2022-09-03T10:35:27;21.50;99.90
44487;DHT22;30191;50.908;6.962;2022-09-03T10:38:01;21.60;99.90
44487;DHT22;30191;50.908;6.962;2022-09-03T10:46:15;22.00;99.90
44487;DHT22;30191;50.908;6.962;2022-09-03T10:51:35;22.10;99.90
44487;DHT22;30191;50.908;6.962;2022-09-03T10:54:31;22.10;99.90
44487;DHT22;30191;50.908;6.962;2022-09-03T11:00:05;22.30;99.90
44487;DHT22;30191;50.908;6.962;2022-09-03T11:02:56;22.30;99.90
44487;DHT22;30191;50.908;6.962;2022-09-03T11:05:37;22.40;99.90
44487;DHT22;30191;50.908;6.962;2022-09-03T11:08:31;22.50;99.90
44487;DHT22;30191;50.908;6.962;2022-09-03T11:11:11;22.60;99.90
44487;DHT22;30191;50.908;6.962;2022-09-03T11:14:14;22.60;99.90
44487;DHT22;30191;50.908;6.962;2022-09-03T11:16:51;22.60;99.90
44487;DHT22;30191;50.908;6.962;2022-09-03T11:19:19;22.70;99.90
44487;DHT22;30191;50.908;6.962;2022-09-03T11:21:47;22.80;99.90
44487;DHT22;30191;50.908;6.962;2022-09-03T11:24:18;22.80;99.90
44487;DHT22;30191;50.908;6.962;2022-09-03T11:26:48;22.80;99.90
44487;DHT22;30191;50.908;6.962;2022-09-03T11:29:28;22.90;99.90
44487;DHT22;30191;50.908;6.962;2022-09-03T11:32:08;22.90;99.90
44487;DHT22;30191;50.908;6.962;2022-09-03T11:34:51;23.00;99.90
44487;DHT22;30191;50.908;6.962;2022-09-03T11:37:27;23.00;99.90
44487;DHT22;30191;50.908;6.962;2022-09-03T11:40:05;23.00;99.90
44487;DHT22;30191;50.908;6.962;2022-09-03T11:42:37;23.00;99.90
44487;DHT22;30191;50.908;6.962;2022-09-03T11:47:57;23.10;99.90
44487;DHT22;30191;50.908;6.962;2022-09-03T11:52:52;23.10;99.90
44487;DHT22;30191;50.908;6.962;2022-09-03T11:55:55;23.20;99.90
44487;DHT22;30191;50.908;6.962;2022-09-03T11:58:35;23.20;99.90
44487;DHT22;30191;50.908;6.962;2022-09-03T12:01:04;23.40;99.90
44487;DHT22;30191;50.908;6.962;2022-09-03T12:04:04;23.50;99.90
44487;DHT22;30191;50.908;6.962;2022-09-03T12:10:04;23.70;99.90
44487;DHT22;30191;50.908;6.962;2022-09-03T12:18:10;24.20;99.90
44487;DHT22;30191;50.908;6.962;2022-09-03T12:21:00;24.30;99.90
44487;DHT22;30191;50.908;6.962;2022-09-03T12:23:32;24.40;99.90
44487;DHT22;30191;50.908;6.962;2022-09-03T12:26:05;24.60;99.90
44487;DHT22;30191;50.908;6.962;2022-09-03T12:28:37;24.80;99.70
44487;DHT22;30191;50.908;6.962;2022-09-03T12:31:26;24.90;99.60
44487;DHT22;30191;50.908;6.962;2022-09-03T12:36:39;25.30;98.90
44487;DHT22;30191;50.908;6.962;2022-09-03T12:39:10;25.50;98.80
44487;DHT22;30191;50.908;6.962;2022-09-03T12:41:36;25.70;98.40
44487;DHT22;30191;50.908;6.962;2022-09-03T12:44:02;25.80;98.50
44487;DHT22;30191;50.908;6.962;2022-09-03T12:46:32;26.00;98.30
44487;DHT22;30191;50.908;6.962;2022-09-03T12:48:59;26.20;98.00
44487;DHT22;30191;50.908;6.962;2022-09-03T12:51:38;26.40;97.90
44487;DHT22;30191;50.908;6.962;2022-09-03T12:54:05;26.60;97.60
44487;DHT22;30191;50.908;6.962;2022-09-03T12:56:34;26.90;97.60
44487;DHT22;30191;50.908;6.962;2022-09-03T12:59:06;27.10;97.30
44487;DHT22;30191;50.908;6.962;2022-09-03T13:01:48;27.30;96.80
44487;DHT22;30191;50.908;6.962;2022-09-03T13:04:24;27.60;96.70
44487;DHT22;30191;50.908;6.962;2022-09-03T13:07:42;27.90;96.30
44487;DHT22;30191;50.908;6.962;2022-09-03T13:09:45;28.40;95.90
44487;DHT22;30191;50.908;6.962;2022-09-03T13:12:32;29.70;94.90
44487;DHT22;30191;50.908;6.962;2022-09-03T13:15:08;31.90;92.60
44487;DHT22;30191;50.908;6.962;2022-09-03T13:18:07;33.80;90.30
44487;DHT22;30191;50.908;6.962;2022-09-03T13:23:47;37.40;80.40
44487;DHT22;30191;50.908;6.962;2022-09-03T13:26:41;37.80;76.20
44487;DHT22;30191;50.908;6.962;2022-09-03T13:31:54;38.90;72.00
44487;DHT22;30191;50.908;6.962;2022-09-03T13:37:11;39.40;69.20
44487;DHT22;30191;50.908;6.962;2022-09-03T13:42:21;39.40;67.90
44487;DHT22;30191;50.908;6.962;2022-09-03T13:44:55;39.60;67.60
44487;DHT22;30191;50.908;6.962;2022-09-03T13:48:19;39.30;67.40
44487;DHT22;30191;50.908;6.962;2022-09-03T13:51:23;39.00;66.90
44487;DHT22;30191;50.908;6.962;2022-09-03T13:56:49;38.60;66.90
44487;DHT22;30191;50.908;6.962;2022-09-03T13:59:30;38.50;66.90
44487;DHT22;30191;50.908;6.962;2022-09-03T14:04:53;37.30;67.00
44487;DHT22;30191;50.908;6.962;2022-09-03T14:07:46;37.00;67.60
44487;DHT22;30191;50.908;6.962;2022-09-03T14:10:20;36.90;68.00
44487;DHT22;30191;50.908;6.962;2022-09-03T14:12:54;36.80;67.50
44487;DHT22;30191;50.908;6.962;2022-09-03T14:15:46;37.00;67.70
44487;DHT22;30191;50.908;6.962;2022-09-03T14:18:27;36.90;68.10
44487;DHT22;30191;50.908;6.962;2022-09-03T14:21:13;36.90;67.60
44487;DHT22;30191;50.908;6.962;2022-09-03T14:26:53;35.40;68.10
44487;DHT22;30191;50.908;6.962;2022-09-03T14:29:26;33.70;69.80
44487;DHT22;30191;50.908;6.962;2022-09-03T14:37:29;32.80;72.70
44487;DHT22;30191;50.908;6.962;2022-09-03T14:46:03;34.20;70.80
44487;DHT22;30191;50.908;6.962;2022-09-03T14:48:13;33.40;71.40
44487;DHT22;30191;50.908;6.962;2022-09-03T14:51:21;33.00;72.50
44487;DHT22;30191;50.908;6.962;2022-09-03T14:57:15;33.70;72.30
44487;DHT22;30191;50.908;6.962;2022-09-03T15:00:01;33.30;71.80
44487;DHT22;30191;50.908;6.962;2022-09-03T15:05:26;33.60;72.40
44487;DHT22;30191;50.908;6.962;2022-09-03T15:10:45;33.10;73.10
44487;DHT22;30191;50.908;6.962;2022-09-03T15:13:24;33.20;72.60
44487;DHT22;30191;50.908;6.962;2022-09-03T15:19:06;31.80;73.80
44487;DHT22;30191;50.908;6.962;2022-09-03T15:37:51;28.30;81.50
44487;DHT22;30191;50.908;6.962;2022-09-03T15:42:54;27.90;83.00
44487;DHT22;30191;50.908;6.962;2022-09-03T15:45:34;27.70;83.70
44487;DHT22;30191;50.908;6.962;2022-09-03T15:51:04;27.30;85.60
44487;DHT22;30191;50.908;6.962;2022-09-03T15:53:51;27.20;86.40
44487;DHT22;30191;50.908;6.962;2022-09-03T15:59:13;27.00;88.30
44487;DHT22;30191;50.908;6.962;2022-09-03T16:01:47;26.90;89.40
44487;DHT22;30191;50.908;6.962;2022-09-03T16:09:59;26.70;90.20
44487;DHT22;30191;50.908;6.962;2022-09-03T16:12:40;26.30;92.20
44487;DHT22;30191;50.908;6.962;2022-09-03T16:15:16;26.10;93.50
44487;DHT22;30191;50.908;6.962;2022-09-03T16:17:55;25.90;94.70
44487;DHT22;30191;50.908;6.962;2022-09-03T16:20:45;25.70;95.40
44487;DHT22;30191;50.908;6.962;2022-09-03T16:26:10;25.50;97.80
44487;DHT22;30191;50.908;6.962;2022-09-03T16:28:53;25.40;99.10
44487;DHT22;30191;50.908;6.962;2022-09-03T16:45:01;25.10;99.90
44487;DHT22;30191;50.908;6.962;2022-09-03T16:56:06;25.10;99.90
44487;DHT22;30191;50.908;6.962;2022-09-03T16:58:52;25.20;99.90
44487;DHT22;30191;50.908;6.962;2022-09-03T17:01:45;25.30;99.90
44487;DHT22;30191;50.908;6.962;2022-09-03T17:24:52;24.30;99.90
44487;DHT22;30191;50.908;6.962;2022-09-03T17:27:48;24.20;99.90
44487;DHT22;30191;50.908;6.962;2022-09-03T17:30:22;24.20;99.90
44487;DHT22;30191;50.908;6.962;2022-09-03T17:49:30;23.40;99.90
44487;DHT22;30191;50.908;6.962;2022-09-03T17:52:07;23.40;99.90
44487;DHT22;30191;50.908;6.962;2022-09-03T17:54:49;23.30;99.90
44487;DHT22;30191;50.908;6.962;2022-09-03T17:57:23;23.20;99.90
44487;DHT22;30191;50.908;6.962;2022-09-03T17:59:56;23.10;99.90
44487;DHT22;30191;50.908;6.962;2022-09-03T18:05:23;22.90;99.90
44487;DHT22;30191;50.908;6.962;2022-09-03T18:08:13;22.80;99.90
44487;DHT22;30191;50.908;6.962;2022-09-03T18:16:18;22.60;99.90
44487;DHT22;30191;50.908;6.962;2022-09-03T18:18:49;22.60;99.90
44487;DHT22;30191;50.908;6.962;2022-09-03T18:21:24;22.50;99.90
44487;DHT22;30191;50.908;6.962;2022-09-03T18:27:16;22.40;99.90
44487;DHT22;30191;50.908;6.962;2022-09-03T18:30:11;22.40;99.90
44487;DHT22;30191;50.908;6.962;2022-09-03T18:32:56;22.30;99.90
44487;DHT22;30191;50.908;6.962;2022-09-03T18:35:43;22.20;99.90
44487;DHT22;30191;50.908;6.962;2022-09-03T18:38:31;22.30;99.90
44487;DHT22;30191;50.908;6.962;2022-09-03T18:46:58;22.30;99.90
44487;DHT22;30191;50.908;6.962;2022-09-03T18:50:01;22.30;99.90
44487;DHT22;30191;50.908;6.962;2022-09-03T18:53:04;22.20;99.90
44487;DHT22;30191;50.908;6.962;2022-09-03T18:59:19;22.10;99.90
44487;DHT22;30191;50.908;6.962;2022-09-03T19:05:51;22.00;99.90
44487;DHT22;30191;50.908;6.962;2022-09-03T19:09:47;22.00;99.90
44487;DHT22;30191;50.908;6.962;2022-09-03T19:12:23;22.00;99.90
44487;DHT22;30191;50.908;6.962;2022-09-03T19:24:01;21.80;99.90
44487;DHT22;30191;50.908;6.962;2022-09-03T19:36:07;21.60;99.90
44487;DHT22;30191;50.908;6.962;2022-09-03T19:45:14;21.50;99.90
44487;DHT22;30191;50.908;6.962;2022-09-03T19:48:27;21.50;99.90
44487;DHT22;30191;50.908;6.962;2022-09-03T19:51:23;21.50;99.90
44487;DHT22;30191;50.908;6.962;2022-09-03T19:54:08;21.40;99.90
44487;DHT22;30191;50.908;6.962;2022-09-03T19:56:56;21.40;99.90
44487;DHT22;30191;50.908;6.962;2022-09-03T19:59:42;21.30;99.90
44487;DHT22;30191;50.908;6.962;2022-09-03T20:02:27;21.30;99.90
44487;DHT22;30191;50.908;6.962;2022-09-03T20:05:19;21.30;99.90
44487;DHT22;30191;50.908;6.962;2022-09-03T20:08:05;21.30;99.90
44487;DHT22;30191;50.908;6.962;2022-09-03T20:10:52;21.20;99.90
44487;DHT22;30191;50.908;6.962;2022-09-03T20:13:20;21.20;99.90
44487;DHT22;30191;50.908;6.962;2022-09-03T20:16:26;21.20;99.90
44487;DHT22;30191;50.908;6.962;2022-09-03T20:19:08;21.20;99.90
44487;DHT22;30191;50.908;6.962;2022-09-03T20:22:48;21.20;99.90
44487;DHT22;30191;50.908;6.962;2022-09-03T20:24:57;21.10;99.90
44487;DHT22;30191;50.908;6.962;2022-09-03T20:28:00;21.00;99.90
44487;DHT22;30191;50.908;6.962;2022-09-03T20:30:44;21.00;99.90
44487;DHT22;30191;50.908;6.962;2022-09-03T20:33:33;21.00;99.90
44487;DHT22;30191;50.908;6.962;2022-09-03T20:36:22;21.00;99.90
44487;DHT22;30191;50.908;6.962;2022-09-03T20:42:20;21.00;99.90
44487;DHT22;30191;50.908;6.962;2022-09-03T20:47:44;20.90;99.90
44487;DHT22;30191;50.908;6.962;2022-09-03T21:01:50;20.90;99.90
44487;DHT22;30191;50.908;6.962;2022-09-03T21:07:14;20.90;99.90
44487;DHT22;30191;50.908;6.962;2022-09-03T21:24:41;20.80;99.90
44487;DHT22;30191;50.908;6.962;2022-09-03T21:26:44;20.70;99.90
44487;DHT22;30191;50.908;6.962;2022-09-03T21:34:30;20.60;99.90
44487;DHT22;30191;50.908;6.962;2022-09-03T21:36:59;20.60;99.90
44487;DHT22;30191;50.908;6.962;2022-09-03T21:39:33;20.60;99.90
44487;DHT22;30191;50.908;6.962;2022-09-03T21:45:03;20.60;99.90
44487;DHT22;30191;50.908;6.962;2022-09-03T21:47:38;20.60;99.90
44487;DHT22;30191;50.908;6.962;2022-09-03T21:50:17;20.60;99.90
44487;DHT22;30191;50.908;6.962;2022-09-03T21:52:57;20.60;99.90
44487;DHT22;30191;50.908;6.962;2022-09-03T21:55:45;20.60;99.90
44487;DHT22;30191;50.908;6.962;2022-09-03T21:58:44;20.60;99.90
44487;DHT22;30191;50.908;6.962;2022-09-03T22:01:25;20.50;99.90
44487;DHT22;30191;50.908;6.962;2022-09-03T22:03:54;20.50;99.90
44487;DHT22;30191;50.908;6.962;2022-09-03T22:06:31;20.40;99.90